Time;durP1;ratioP1;P1;durP2;ratioP2;P2;SDS_P1;SDS_P2;PMS_P1;PMS_P2;Temp;Humidity;BMP_temperature;BMP_pressure;BME280_temperature;BME280_humidity;BME280_pressure;Samples;Min_cycle;Max_cycle;Signal;HPM_P1;HPM_P2
2022/04/21 00:01:28;;;;;;;8.20;5.68;;;7.90;99.90;;;;;;5092894;28;20043;-71
2022/04/21 00:03:53;;;;;;;10.00;6.72;;;7.80;99.90;;;;;;5110401;28;20043;-70
2022/04/21 00:06:19;;;;;;;8.80;5.90;;;7.80;99.90;;;;;;5093441;28;20100;-71
2022/04/21 00:08:44;;;;;;;9.65;6.65;;;7.80;99.90;;;;;;5111694;28;20054;-70
2022/04/21 00:11:10;;;;;;;8.68;6.95;;;7.80;99.90;;;;;;5100494;28;20052;-70
2022/04/21 00:13:36;;;;;;;10.05;7.28;;;7.80;99.90;;;;;;5111529;28;20413;-71
2022/04/21 00:16:02;;;;;;;10.07;7.55;;;7.80;99.90;;;;;;5110216;28;20042;-71
2022/04/21 00:18:28;;;;;;;12.82;7.10;;;7.80;99.90;;;;;;5077852;28;20043;-70
2022/04/21 00:20:53;;;;;;;12.98;7.63;;;7.70;99.90;;;;;;5103065;28;20047;-71
2022/04/21 00:23:29;;;;;;;11.65;6.65;;;7.70;99.90;;;;;;5099598;28;20115;-70
2022/04/21 00:25:59;;;;;;;14.55;7.03;;;7.60;99.90;;;;;;5089862;28;20522;-71
2022/04/21 00:28:26;;;;;;;7.72;6.45;;;7.60;99.90;;;;;;5075600;28;20047;-70
2022/04/21 00:30:51;;;;;;;10.52;7.40;;;7.60;99.90;;;;;;5092660;28;20047;-71
2022/04/21 00:33:17;;;;;;;11.30;7.13;;;7.60;99.90;;;;;;5110795;28;20097;-71
2022/04/21 00:35:43;;;;;;;9.27;7.28;;;7.50;99.90;;;;;;5106441;28;20483;-70
2022/04/21 00:38:09;;;;;;;11.07;7.05;;;7.50;99.90;;;;;;5086754;28;20058;-70
2022/04/21 00:40:34;;;;;;;10.98;8.02;;;7.40;99.90;;;;;;5101630;28;20052;-71
2022/04/21 00:43:01;;;;;;;11.65;7.35;;;7.40;99.90;;;;;;5092543;28;20543;-71
2022/04/21 00:45:29;;;;;;;9.77;8.05;;;7.40;99.90;;;;;;5080155;28;20048;-70
2022/04/21 00:47:56;;;;;;;11.90;8.35;;;7.40;99.90;;;;;;5071685;28;20063;-71
2022/04/21 00:50:33;;;;;;;9.32;7.10;;;7.30;99.90;;;;;;5072437;28;20575;-70
2022/04/21 00:53:00;;;;;;;11.30;7.20;;;7.30;99.90;;;;;;5089725;28;20052;-71
2022/04/21 00:55:26;;;;;;;12.85;8.18;;;7.30;99.90;;;;;;5072286;28;20044;-71
2022/04/21 00:57:53;;;;;;;10.48;7.97;;;7.20;99.90;;;;;;5090329;28;20058;-71
2022/04/21 01:00:20;;;;;;;9.82;8.00;;;7.20;99.90;;;;;;5090122;28;20044;-70
2022/04/21 01:02:55;;;;;;;10.98;8.45;;;7.20;99.90;;;;;;5072448;28;20082;-71
2022/04/21 01:05:31;;;;;;;14.45;8.68;;;7.20;99.90;;;;;;5072364;28;20050;-70
2022/04/21 01:08:07;;;;;;;10.38;8.05;;;7.10;99.90;;;;;;5071729;28;20044;-71
2022/04/21 01:10:37;;;;;;;13.45;9.00;;;7.10;99.90;;;;;;5072412;28;20040;-70
2022/04/21 01:13:08;;;;;;;11.25;8.00;;;7.10;99.90;;;;;;5079397;28;20043;-70
2022/04/21 01:15:37;;;;;;;10.98;8.57;;;7.10;99.90;;;;;;5075583;28;20044;-71
2022/04/21 01:18:05;;;;;;;11.13;8.00;;;7.10;99.90;;;;;;5105464;28;20354;-70
2022/04/21 01:20:31;;;;;;;12.48;9.13;;;7.10;99.90;;;;;;5090347;28;20051;-70
2022/04/21 01:22:56;;;;;;;14.43;9.55;;;7.10;99.90;;;;;;5071097;28;20044;-71
2022/04/21 01:25:23;;;;;;;16.08;10.13;;;7.20;99.90;;;;;;5073875;28;20047;-70
2022/04/21 01:27:52;;;;;;;15.98;9.15;;;7.20;99.90;;;;;;5081947;28;20074;-71
2022/04/21 01:30:18;;;;;;;15.73;8.57;;;7.20;99.90;;;;;;5105508;28;20044;-70
2022/04/21 01:32:45;;;;;;;12.50;9.27;;;7.20;99.90;;;;;;5072247;28;20106;-70
2022/04/21 01:35:12;;;;;;;13.25;8.60;;;7.30;99.90;;;;;;5089117;28;20130;-70
2022/04/21 01:43:07;;;;;;;17.00;10.35;;;7.30;99.90;;;;;;5109416;28;20494;-70
2022/04/21 01:45:33;;;;;;;16.60;9.43;;;7.30;99.90;;;;;;5092194;28;20049;-71
2022/04/21 01:47:59;;;;;;;12.93;9.45;;;7.30;99.90;;;;;;5090024;28;20448;-70
2022/04/21 01:50:26;;;;;;;14.18;9.07;;;7.30;99.90;;;;;;5110162;28;20048;-70
2022/04/21 01:52:52;;;;;;;15.50;9.60;;;7.30;99.90;;;;;;5092811;28;20036;-71
2022/04/21 01:55:19;;;;;;;13.93;9.48;;;7.20;99.90;;;;;;5096039;28;20142;-70
2022/04/21 01:57:44;;;;;;;13.40;9.18;;;7.20;99.90;;;;;;5086724;28;20138;-70
2022/04/21 02:00:10;;;;;;;15.45;10.23;;;7.10;99.90;;;;;;5093224;28;20151;-70
2022/04/21 02:02:36;;;;;;;12.85;8.52;;;7.10;99.90;;;;;;5075376;28;20101;-70
2022/04/21 02:05:02;;;;;;;13.60;9.45;;;7.00;99.90;;;;;;5092789;28;20130;-70
2022/04/21 02:07:28;;;;;;;13.90;9.35;;;7.00;99.90;;;;;;5093605;28;20128;-71
2022/04/21 02:09:55;;;;;;;14.73;9.50;;;7.00;99.90;;;;;;5075063;28;20150;-71
2022/04/21 02:12:25;;;;;;;15.55;9.23;;;6.90;99.90;;;;;;5092599;28;20474;-71
2022/04/21 02:14:51;;;;;;;15.00;9.52;;;6.90;99.90;;;;;;5074604;28;20054;-70
2022/04/21 02:17:17;;;;;;;15.10;10.02;;;6.90;99.90;;;;;;5074945;28;20080;-70
2022/04/21 02:19:43;;;;;;;14.23;9.80;;;6.90;99.90;;;;;;5074502;28;20122;-70
2022/04/21 02:22:09;;;;;;;12.88;9.25;;;6.90;99.90;;;;;;5074736;28;20048;-70
2022/04/21 02:24:34;;;;;;;13.65;9.73;;;7.00;99.90;;;;;;5074380;28;20048;-70
2022/04/21 02:27:00;;;;;;;15.35;9.88;;;7.00;99.90;;;;;;5092739;28;20032;-70
2022/04/21 02:29:26;;;;;;;13.25;10.10;;;7.00;99.90;;;;;;5093082;28;20052;-70
2022/04/21 02:31:51;;;;;;;14.82;9.05;;;7.10;99.90;;;;;;5092228;28;20039;-71
2022/04/21 02:34:17;;;;;;;11.52;8.85;;;7.00;99.90;;;;;;5074662;28;20052;-70
2022/04/21 02:36:42;;;;;;;15.27;9.23;;;7.00;99.90;;;;;;5074874;28;20044;-70
2022/04/21 02:39:08;;;;;;;12.18;8.90;;;6.90;99.90;;;;;;5073773;28;20056;-70
2022/04/21 02:41:33;;;;;;;12.55;9.77;;;7.00;99.90;;;;;;5092835;28;20086;-71
2022/04/21 02:43:59;;;;;;;11.40;8.68;;;6.90;99.90;;;;;;5092292;28;20054;-70
2022/04/21 02:46:29;;;;;;;14.50;10.02;;;6.90;99.90;;;;;;5092202;28;20043;-70
2022/04/21 02:49:00;;;;;;;14.07;9.98;;;6.90;99.90;;;;;;5092311;28;20487;-71
2022/04/21 02:51:27;;;;;;;11.88;9.32;;;6.90;99.90;;;;;;5092595;28;20079;-70
2022/04/21 02:59:21;;;;;;;13.27;9.48;;;6.80;99.90;;;;;;5073603;28;20052;-70
2022/04/21 03:01:47;;;;;;;12.48;9.10;;;6.80;99.90;;;;;;5091752;28;20383;-70
2022/04/21 03:04:13;;;;;;;13.85;9.65;;;6.90;99.90;;;;;;5092046;28;20449;-70
2022/04/21 03:06:38;;;;;;;14.52;8.15;;;6.80;99.90;;;;;;5091642;28;20499;-70
2022/04/21 03:09:04;;;;;;;14.15;9.15;;;6.80;99.90;;;;;;5092135;28;20128;-70
2022/04/21 03:11:29;;;;;;;12.02;8.07;;;6.80;99.90;;;;;;5092264;28;20040;-70
2022/04/21 03:13:55;;;;;;;10.65;8.27;;;6.80;99.90;;;;;;5091362;28;20048;-71
2022/04/21 03:16:20;;;;;;;11.25;7.85;;;6.80;99.90;;;;;;5092544;27;20036;-70
2022/04/21 03:18:46;;;;;;;13.20;8.65;;;6.80;99.90;;;;;;5081622;28;20048;-70
2022/04/21 03:26:40;;;;;;;10.65;8.13;;;6.70;99.90;;;;;;5073655;28;20048;-70
2022/04/21 03:29:05;;;;;;;12.77;7.65;;;6.70;99.90;;;;;;5091089;28;20047;-70
2022/04/21 03:31:31;;;;;;;11.25;8.38;;;6.60;99.90;;;;;;5073912;28;20122;-70
2022/04/21 03:33:56;;;;;;;12.82;8.85;;;6.50;99.90;;;;;;5091377;28;20085;-71
2022/04/21 03:36:22;;;;;;;11.52;7.80;;;6.50;99.90;;;;;;5073262;28;20479;-70
2022/04/21 03:38:48;;;;;;;11.98;8.23;;;6.40;99.90;;;;;;5091718;28;20044;-70
2022/04/21 03:41:13;;;;;;;11.05;7.60;;;6.40;99.90;;;;;;5073067;28;20048;-70
2022/04/21 03:43:39;;;;;;;10.52;8.55;;;6.30;99.90;;;;;;5091046;28;20089;-70
2022/04/21 03:46:05;;;;;;;10.73;7.32;;;6.30;99.90;;;;;;5091276;28;20046;-70
2022/04/21 03:48:37;;;;;;;11.18;7.95;;;6.30;99.90;;;;;;5091444;28;20067;-70
2022/04/21 03:51:02;;;;;;;10.00;7.30;;;6.20;99.90;;;;;;5072283;28;20097;-70
2022/04/21 03:53:28;;;;;;;10.45;7.20;;;6.20;99.90;;;;;;5091535;28;20044;-70
2022/04/21 03:55:53;;;;;;;10.30;7.30;;;6.10;99.90;;;;;;5090457;28;20059;-71
2022/04/21 03:58:19;;;;;;;9.45;7.55;;;6.10;99.90;;;;;;5073421;28;20044;-70
2022/04/21 04:00:44;;;;;;;12.05;7.40;;;6.10;99.90;;;;;;5091360;28;20046;-71
2022/04/21 04:03:10;;;;;;;10.70;7.68;;;6.00;99.90;;;;;;5072403;28;20062;-71
2022/04/21 04:05:36;;;;;;;10.43;7.10;;;6.00;99.90;;;;;;5091383;28;20044;-70
2022/04/21 04:10:52;;;;;;;10.23;7.25;;;5.90;99.90;;;;;;5098081;28;20051;-71
2022/04/21 04:13:18;;;;;;;14.38;8.20;;;5.90;99.90;;;;;;5116714;27;20099;-71
2022/04/21 04:15:48;;;;;;;10.02;7.07;;;5.80;99.90;;;;;;5088554;28;20506;-71
2022/04/21 04:18:17;;;;;;;10.40;7.15;;;5.80;99.90;;;;;;5108013;27;20424;-71
2022/04/21 04:20:43;;;;;;;7.45;6.60;;;5.80;99.90;;;;;;5110146;27;20108;-71
2022/04/21 04:23:09;;;;;;;13.35;6.90;;;5.80;99.90;;;;;;5072852;28;20486;-71
2022/04/21 04:25:35;;;;;;;12.43;7.55;;;5.80;99.90;;;;;;5072274;28;20055;-71
2022/04/21 04:28:03;;;;;;;11.85;6.72;;;5.80;99.90;;;;;;5072450;28;20044;-71
2022/04/21 04:30:29;;;;;;;11.50;7.13;;;5.80;99.90;;;;;;5072797;28;20052;-70
2022/04/21 04:32:55;;;;;;;9.30;7.25;;;5.80;99.90;;;;;;5071460;28;20051;-70
2022/04/21 04:35:21;;;;;;;11.35;7.38;;;5.80;99.90;;;;;;5097087;28;20048;-70
2022/04/21 04:37:46;;;;;;;8.65;6.72;;;5.80;99.90;;;;;;5086408;28;20048;-70
2022/04/21 04:40:13;;;;;;;11.07;8.05;;;5.80;99.90;;;;;;5094515;28;20058;-71
2022/04/21 04:42:38;;;;;;;8.27;7.13;;;5.80;99.90;;;;;;5107224;28;20044;-70
2022/04/21 04:47:49;;;;;;;11.10;7.15;;;5.90;99.90;;;;;;5109799;28;20048;-70
2022/04/21 04:50:14;;;;;;;8.73;7.15;;;5.90;99.90;;;;;;5110866;28;20555;-70
2022/04/21 04:52:40;;;;;;;8.35;6.85;;;5.90;99.90;;;;;;5109613;28;20051;-70
2022/04/21 04:55:09;;;;;;;9.45;6.65;;;5.90;99.90;;;;;;5092579;28;20079;-70
2022/04/21 04:57:35;;;;;;;10.80;7.57;;;5.90;99.90;;;;;;5092962;28;20051;-70
2022/04/21 05:00:03;;;;;;;8.77;6.55;;;5.90;99.90;;;;;;5110080;28;20100;-70
2022/04/21 05:02:28;;;;;;;9.85;7.53;;;6.00;99.90;;;;;;5111127;28;20051;-70
2022/04/21 05:04:54;;;;;;;8.07;7.00;;;6.00;99.90;;;;;;5110651;28;20502;-70
2022/04/21 05:07:20;;;;;;;10.85;6.63;;;6.00;99.90;;;;;;5109171;28;20040;-70
2022/04/21 05:09:45;;;;;;;12.02;7.32;;;6.10;99.90;;;;;;5099489;28;20059;-70
2022/04/21 05:12:11;;;;;;;10.73;7.30;;;6.10;99.90;;;;;;5090211;28;20040;-70
2022/04/21 05:14:36;;;;;;;10.02;6.55;;;6.10;99.90;;;;;;5089964;28;20040;-70
2022/04/21 05:17:02;;;;;;;14.88;7.18;;;6.20;99.90;;;;;;5090259;28;20132;-71
2022/04/21 05:19:28;;;;;;;11.00;7.30;;;6.20;99.90;;;;;;5090523;28;20044;-70
2022/04/21 05:21:56;;;;;;;9.98;7.20;;;6.20;99.90;;;;;;5105842;27;20047;-70
2022/04/21 05:24:24;;;;;;;10.07;7.50;;;6.30;99.90;;;;;;5096044;27;20047;-70
2022/04/21 05:26:49;;;;;;;12.65;8.00;;;6.40;99.90;;;;;;5134697;27;20050;-70
2022/04/21 05:32:02;;;;;;;8.73;6.80;;;6.50;99.90;;;;;;5133416;27;20051;-70
2022/04/21 05:34:29;;;;;;;8.40;7.35;;;6.50;99.90;;;;;;5109398;28;20438;-70
2022/04/21 05:36:55;;;;;;;8.30;7.03;;;6.60;99.90;;;;;;5076173;28;20517;-70
2022/04/21 05:39:21;;;;;;;8.48;6.90;;;6.60;99.90;;;;;;5109643;28;20047;-70
2022/04/21 05:41:48;;;;;;;9.00;7.72;;;6.70;99.90;;;;;;5095484;28;20067;-70
2022/04/21 05:44:14;;;;;;;11.38;7.70;;;6.70;99.90;;;;;;5104492;27;20057;-70
2022/04/21 05:46:39;;;;;;;12.02;7.93;;;6.80;99.90;;;;;;5121242;27;20039;-70
2022/04/21 05:49:05;;;;;;;9.93;7.10;;;6.80;99.90;;;;;;5110360;27;20735;-69
2022/04/21 05:51:31;;;;;;;8.98;7.22;;;6.90;99.90;;;;;;5086947;28;20039;-70
2022/04/21 05:53:58;;;;;;;10.32;7.50;;;6.90;99.90;;;;;;5075201;28;20113;-70
2022/04/21 05:56:24;;;;;;;10.70;7.47;;;7.00;99.90;;;;;;5094387;28;20079;-71
2022/04/21 05:58:50;;;;;;;8.48;7.57;;;7.10;99.90;;;;;;5105974;28;20401;-71
2022/04/21 06:01:16;;;;;;;13.63;7.15;;;7.10;99.90;;;;;;5083114;28;20039;-70
2022/04/21 06:03:42;;;;;;;10.80;8.18;;;7.20;99.90;;;;;;5098655;28;20066;-70
2022/04/21 06:06:09;;;;;;;11.32;7.35;;;7.20;99.90;;;;;;5121006;27;20062;-69
2022/04/21 06:08:36;;;;;;;9.55;6.70;;;7.30;99.90;;;;;;5083846;28;20056;-71
2022/04/21 06:11:02;;;;;;;9.75;7.10;;;7.40;99.90;;;;;;5106021;27;20044;-70
2022/04/21 06:13:30;;;;;;;9.38;6.55;;;7.40;99.90;;;;;;5103589;27;20519;-70
2022/04/21 06:15:56;;;;;;;9.85;7.65;;;7.50;99.90;;;;;;5126052;27;20040;-70
2022/04/21 06:18:23;;;;;;;13.35;6.93;;;7.60;99.90;;;;;;5094283;28;20505;-70
2022/04/21 06:20:49;;;;;;;9.60;6.90;;;7.60;99.90;;;;;;5132517;27;20346;-70
2022/04/21 06:23:15;;;;;;;10.75;6.65;;;7.70;99.90;;;;;;5115007;27;20071;-70
2022/04/21 06:25:44;;;;;;;10.32;7.13;;;7.80;99.90;;;;;;5107108;27;20053;-71
2022/04/21 06:28:11;;;;;;;8.02;6.57;;;7.90;99.90;;;;;;5105846;27;20130;-71
2022/04/21 06:30:37;;;;;;;11.35;7.47;;;8.00;99.90;;;;;;5110255;28;20054;-72
2022/04/21 06:33:03;;;;;;;10.10;7.15;;;8.10;99.90;;;;;;5093371;28;20119;-71
2022/04/21 06:35:29;;;;;;;8.35;6.07;;;8.20;99.90;;;;;;5093964;28;20047;-71
2022/04/21 06:37:55;;;;;;;8.73;7.43;;;8.60;99.90;;;;;;5078433;28;20878;-72
2022/04/21 06:40:22;;;;;;;7.55;6.60;;;8.30;99.90;;;;;;5090324;28;20506;-71
2022/04/21 06:42:48;;;;;;;8.23;7.15;;;8.50;99.90;;;;;;5094585;28;20032;-70
2022/04/21 06:48:02;;;;;;;9.93;7.22;;;8.60;99.90;;;;;;5079961;28;20127;-70
2022/04/21 06:50:39;;;;;;;7.95;6.03;;;8.80;99.90;;;;;;5090096;28;20043;-70
2022/04/21 06:53:09;;;;;;;12.15;6.47;;;8.90;99.90;;;;;;5087458;28;20052;-70
2022/04/21 06:55:35;;;;;;;7.10;5.90;;;9.00;99.90;;;;;;5100049;28;20048;-70
2022/04/21 06:58:01;;;;;;;7.35;5.85;;;9.10;99.90;;;;;;5111387;28;20036;-70
2022/04/21 07:00:28;;;;;;;7.88;5.95;;;9.20;99.90;;;;;;5111931;28;20115;-70
2022/04/21 07:02:55;;;;;;;10.23;5.40;;;9.30;99.90;;;;;;5112520;28;20055;-70
2022/04/21 07:05:22;;;;;;;9.35;6.35;;;9.40;99.90;;;;;;5091370;28;20478;-69
2022/04/21 07:07:49;;;;;;;6.78;5.70;;;9.50;99.90;;;;;;5105172;28;20040;-72
2022/04/21 07:10:15;;;;;;;6.57;5.28;;;9.60;99.90;;;;;;5085435;28;20046;-72
2022/04/21 07:12:41;;;;;;;8.93;5.97;;;9.70;99.90;;;;;;5112365;28;20067;-86
2022/04/21 07:15:09;;;;;;;7.22;5.65;;;9.90;99.90;;;;;;5111934;28;20090;-73
2022/04/21 07:17:37;;;;;;;7.07;6.28;;;10.00;99.90;;;;;;5112798;28;20095;-73
2022/04/21 07:20:04;;;;;;;7.75;5.95;;;10.10;99.90;;;;;;5111469;28;20501;-73
2022/04/21 07:22:30;;;;;;;8.15;5.05;;;10.20;99.90;;;;;;5111401;28;20089;-72
2022/04/21 07:24:57;;;;;;;6.88;5.78;;;10.20;99.90;;;;;;5091577;28;20044;-72
2022/04/21 07:27:24;;;;;;;10.13;5.47;;;10.40;99.90;;;;;;5092350;28;20510;-71
2022/04/21 07:29:49;;;;;;;9.80;5.90;;;10.40;99.90;;;;;;5093230;28;20051;-70
2022/04/21 07:32:16;;;;;;;9.52;5.63;;;10.60;99.90;;;;;;5079560;28;20058;-72
2022/04/21 07:34:41;;;;;;;10.95;5.43;;;10.60;99.90;;;;;;5091112;28;20165;-71
2022/04/21 07:37:09;;;;;;;6.63;5.50;;;10.80;99.90;;;;;;5092201;28;20126;-72
2022/04/21 07:39:36;;;;;;;6.63;4.68;;;10.90;99.90;;;;;;5113570;27;20176;-72
2022/04/21 07:42:02;;;;;;;8.40;5.35;;;11.10;99.90;;;;;;5111593;27;20044;-72
2022/04/21 07:44:28;;;;;;;4.75;4.25;;;11.20;99.90;;;;;;5108871;27;20599;-76
2022/04/21 07:46:55;;;;;;;6.65;4.55;;;11.40;99.90;;;;;;5117341;27;20126;-71
2022/04/21 07:54:50;;;;;;;4.65;3.30;;;11.70;99.90;;;;;;5104593;27;20046;-73
2022/04/21 07:57:16;;;;;;;3.33;2.70;;;11.80;99.90;;;;;;5085644;28;20453;-74
2022/04/21 07:59:42;;;;;;;6.15;2.65;;;11.90;99.90;;;;;;5100581;27;20463;-75
2022/04/21 08:02:08;;;;;;;2.45;2.20;;;12.10;99.90;;;;;;5100802;28;20044;-72
2022/04/21 08:04:40;;;;;;;6.22;2.30;;;12.10;99.90;;;;;;5104020;28;20104;-75
2022/04/21 08:07:05;;;;;;;2.65;1.92;;;12.20;99.90;;;;;;5091125;28;20507;-74
2022/04/21 08:09:31;;;;;;;3.25;2.50;;;12.20;99.90;;;;;;5075577;28;20052;-74
2022/04/21 08:11:57;;;;;;;2.13;1.92;;;12.40;99.90;;;;;;5101869;28;20039;-74
2022/04/21 08:14:23;;;;;;;4.53;2.40;;;12.40;99.90;;;;;;5091065;28;20426;-74
2022/04/21 08:16:49;;;;;;;2.92;2.33;;;12.50;99.90;;;;;;5090507;28;20584;-73
2022/04/21 08:19:15;;;;;;;4.10;2.85;;;12.60;99.90;;;;;;5089743;28;20131;-74
2022/04/21 08:21:42;;;;;;;3.45;2.40;;;12.70;99.90;;;;;;5099402;27;20050;-73
2022/04/21 08:35:04;;;;;;;4.78;3.72;;;13.10;99.90;;;;;;5092156;28;20044;-73
2022/04/21 08:37:33;;;;;;;15.18;4.05;;;13.20;99.90;;;;;;5071505;28;20059;-73
2022/04/21 08:40:00;;;;;;;4.20;3.33;;;13.20;99.90;;;;;;5072099;28;20161;-72
2022/04/21 08:42:29;;;;;;;3.28;2.97;;;13.30;99.90;;;;;;5072419;28;20132;-72
2022/04/21 08:44:57;;;;;;;5.28;3.50;;;13.40;99.90;;;;;;5071222;28;20449;-73
2022/04/21 08:47:27;;;;;;;10.77;3.53;;;13.40;99.90;;;;;;5090819;28;20040;-73
2022/04/21 08:49:58;;;;;;;3.92;3.53;;;13.40;99.90;;;;;;5090619;28;20054;-73
2022/04/21 08:52:24;;;;;;;12.95;3.70;;;13.50;99.90;;;;;;5089870;28;20052;-72
2022/04/21 08:54:49;;;;;;;6.63;3.25;;;13.50;99.90;;;;;;5072330;28;20077;-72
2022/04/21 08:57:15;;;;;;;6.88;3.10;;;13.60;98.50;;;;;;5094625;28;20044;-72
2022/04/21 08:59:41;;;;;;;5.45;3.17;;;14.20;99.90;;;;;;5094287;28;20132;-72
2022/04/21 09:02:06;;;;;;;5.30;2.97;;;13.60;99.90;;;;;;5076569;28;20131;-72
2022/04/21 09:04:32;;;;;;;6.65;3.00;;;13.70;99.90;;;;;;5076581;28;20580;-72
2022/04/21 09:07:43;;;;;;;5.18;2.38;;;13.70;99.90;;;;;;5075437;28;20151;-72
2022/04/21 09:10:13;;;;;;;4.63;2.50;;;13.70;99.90;;;;;;4982767;28;20824;-73
2022/04/21 09:12:48;;;;;;;5.00;2.75;;;13.80;99.90;;;;;;5084793;28;20054;-73
2022/04/21 09:15:18;;;;;;;4.60;2.72;;;13.90;99.90;;;;;;5108450;28;20132;-72
2022/04/21 09:17:48;;;;;;;3.10;2.80;;;13.90;99.90;;;;;;5113914;28;20057;-73
2022/04/21 09:20:19;;;;;;;2.58;2.38;;;14.00;99.90;;;;;;5095005;28;20047;-73
2022/04/21 09:22:53;;;;;;;3.97;2.30;;;14.10;99.90;;;;;;5114269;28;20039;-73
2022/04/21 09:25:22;;;;;;;6.10;3.05;;;14.20;99.90;;;;;;5114394;28;20043;-73
2022/04/21 09:27:48;;;;;;;2.83;2.58;;;14.30;99.90;;;;;;5113520;28;20044;-73
2022/04/21 09:30:14;;;;;;;3.40;2.42;;;14.40;99.90;;;;;;5095509;28;20044;-73
2022/04/21 09:32:57;;;;;;;3.58;2.13;;;14.40;98.70;;;;;;5096006;28;20040;-73
2022/04/21 09:35:28;;;;;;;2.17;1.98;;;14.40;98.10;;;;;;5094826;28;20405;-73
2022/04/21 09:37:57;;;;;;;3.17;2.35;;;14.40;97.40;;;;;;5113228;28;20062;-74
2022/04/21 09:40:24;;;;;;;4.00;2.40;;;14.50;96.90;;;;;;5095963;28;20375;-73
2022/04/21 09:42:58;;;;;;;3.10;2.58;;;14.50;98.10;;;;;;5113505;28;20048;-73
2022/04/21 09:48:33;;;;;;;2.92;2.50;;;14.60;97.10;;;;;;5093934;28;20052;-73
2022/04/21 09:51:25;;;;;;;2.75;2.55;;;14.70;95.80;;;;;;5106078;28;20133;-73
2022/04/21 09:53:59;;;;;;;2.95;2.42;;;14.80;97.20;;;;;;5107092;28;20536;-72
2022/04/21 09:56:34;;;;;;;4.00;2.70;;;14.80;97.20;;;;;;5113376;27;20087;-71
2022/04/21 09:59:04;;;;;;;5.50;2.72;;;14.80;97.10;;;;;;5104841;28;20051;-74
2022/04/21 10:01:33;;;;;;;4.22;2.70;;;14.80;96.50;;;;;;5103870;28;20086;-76
2022/04/21 10:04:00;;;;;;;4.93;2.80;;;14.90;97.80;;;;;;5106441;28;20581;-73
2022/04/21 10:06:26;;;;;;;3.97;2.78;;;15.10;97.00;;;;;;5106949;28;20130;-74
2022/04/21 10:08:52;;;;;;;3.38;2.58;;;15.10;97.00;;;;;;5093359;28;20142;-77
2022/04/21 10:11:24;;;;;;;2.70;2.45;;;15.10;96.90;;;;;;5074974;28;20128;-76
2022/04/21 10:13:55;;;;;;;2.60;2.40;;;15.20;96.30;;;;;;5095307;28;20048;-75
2022/04/21 10:16:28;;;;;;;5.38;2.58;;;15.30;97.10;;;;;;5111601;27;20039;-75
2022/04/21 10:18:57;;;;;;;5.80;2.78;;;15.40;96.40;;;;;;5113151;27;20050;-76
2022/04/21 10:21:37;;;;;;;4.32;3.03;;;15.40;95.00;;;;;;5101412;28;20040;-75
2022/04/21 10:24:04;;;;;;;5.80;2.58;;;15.40;93.60;;;;;;5074391;28;20139;-74
2022/04/21 10:26:43;;;;;;;3.65;2.67;;;15.30;93.20;;;;;;5101731;27;20137;-75
2022/04/21 10:29:23;;;;;;;3.95;2.45;;;15.30;92.50;;;;;;5086230;28;20410;-73
2022/04/21 10:31:59;;;;;;;2.80;2.53;;;15.20;93.40;;;;;;5093531;28;20055;-74
2022/04/21 10:34:40;;;;;;;6.13;2.60;;;15.30;94.80;;;;;;5094712;28;20043;-73
2022/04/21 10:37:20;;;;;;;5.30;2.85;;;15.50;94.70;;;;;;5093334;28;20047;-75
2022/04/21 10:40:04;;;;;;;4.88;2.90;;;15.60;95.80;;;;;;5093920;28;20054;-74
2022/04/21 10:42:50;;;;;;;3.20;2.83;;;15.70;94.30;;;;;;5093875;28;20415;-74
2022/04/21 10:45:22;;;;;;;2.60;2.40;;;15.70;93.20;;;;;;5062019;28;20533;-72
2022/04/21 10:48:07;;;;;;;4.27;2.20;;;15.70;93.20;;;;;;5092891;28;20075;-74
2022/04/21 10:50:34;;;;;;;4.18;2.13;;;15.80;89.50;;;;;;5109742;28;20051;-72
2022/04/21 10:59:02;;;;;;;2.10;1.90;;;15.70;91.20;;;;;;5108577;28;20051;-74
2022/04/21 11:01:28;;;;;;;2.47;1.88;;;15.80;89.10;;;;;;5092591;28;20040;-74
2022/04/21 11:04:11;;;;;;;2.40;2.00;;;15.80;87.30;;;;;;5100405;28;20532;-74
2022/04/21 11:06:43;;;;;;;2.05;1.88;;;15.80;86.50;;;;;;5093134;28;20084;-73
2022/04/21 11:09:35;;;;;;;2.10;1.90;;;15.90;86.50;;;;;;5105505;28;20075;-73
2022/04/21 11:12:03;;;;;;;2.08;1.92;;;15.90;83.50;;;;;;5077509;28;20077;-75
2022/04/21 11:14:29;;;;;;;1.85;1.70;;;15.90;81.80;;;;;;5092905;28;20044;-73
2022/04/21 11:17:00;;;;;;;2.72;2.03;;;15.90;82.60;;;;;;5110806;28;20051;-74
2022/04/21 11:19:28;;;;;;;2.30;2.08;;;16.00;81.60;;;;;;5088404;28;20048;-73
2022/04/21 11:21:58;;;;;;;3.42;2.08;;;16.00;83.80;;;;;;5089666;28;20055;-71
2022/04/21 11:24:25;;;;;;;3.20;1.58;;;16.00;85.30;;;;;;5089864;28;20502;-73
2022/04/21 11:26:56;;;;;;;3.90;2.17;;;16.20;84.80;;;;;;5081337;28;20036;-74
2022/04/21 11:29:22;;;;;;;2.35;2.15;;;16.30;81.80;;;;;;5073347;28;20056;-74
2022/04/21 11:31:48;;;;;;;6.50;2.15;;;16.30;81.30;;;;;;5096950;28;20028;-72
2022/04/21 11:34:22;;;;;;;2.67;1.98;;;16.40;79.10;;;;;;5102131;28;20048;-71
2022/04/21 11:36:48;;;;;;;3.80;2.22;;;16.40;78.80;;;;;;5073806;28;20047;-71
2022/04/21 11:39:14;;;;;;;3.80;1.67;;;16.30;79.90;;;;;;5090870;28;20044;-71
2022/04/21 11:41:52;;;;;;;2.63;2.03;;;16.50;81.40;;;;;;5107044;28;20096;-72
2022/04/21 11:44:22;;;;;;;2.15;1.98;;;16.50;79.70;;;;;;5087546;28;20430;-70
2022/04/21 11:46:48;;;;;;;5.03;2.10;;;16.60;77.50;;;;;;5091261;28;20044;-73
2022/04/21 11:49:13;;;;;;;2.05;1.88;;;16.40;77.00;;;;;;5090950;28;20119;-73
2022/04/21 11:51:51;;;;;;;3.88;2.53;;;16.30;78.30;;;;;;5146395;27;20336;-73
2022/04/21 11:54:17;;;;;;;;;;;16.20;80.30;;;;;;5110477;28;20048;-72
2022/04/21 11:56:49;;;;;;;5.55;2.65;;;16.10;80.30;;;;;;5126411;28;20273;-72
2022/04/21 11:59:15;;;;;;;3.65;2.47;;;15.90;81.50;;;;;;5113685;27;20044;-72
2022/04/21 12:07:18;;;;;;;5.70;3.13;;;16.20;85.10;;;;;;5113471;28;20047;-72
2022/04/21 12:09:46;;;;;;;5.03;3.33;;;16.20;84.60;;;;;;5115282;28;20574;-73
2022/04/21 12:12:12;;;;;;;5.75;3.45;;;16.20;84.90;;;;;;5119285;27;20051;-72
2022/04/21 12:14:44;;;;;;;10.77;3.45;;;16.30;85.70;;;;;;5118464;28;20047;-72
2022/04/21 12:17:10;;;;;;;5.88;3.00;;;16.30;84.90;;;;;;5118188;28;20051;-73
2022/04/21 12:19:44;;;;;;;5.40;2.97;;;16.30;83.80;;;;;;5117423;28;20048;-72
2022/04/21 12:22:20;;;;;;;2.78;2.53;;;16.30;83.00;;;;;;5111585;28;20462;-73
2022/04/21 12:24:54;;;;;;;5.80;3.42;;;16.40;83.10;;;;;;5117172;28;20063;-72
2022/04/21 12:27:20;;;;;;;6.03;3.58;;;16.40;81.70;;;;;;5117917;28;20046;-73
2022/04/21 12:29:53;;;;;;;6.95;3.38;;;16.10;81.30;;;;;;5105795;28;20185;-73
2022/04/21 12:32:30;;;;;;;4.47;3.10;;;16.00;81.80;;;;;;5116699;28;20044;-72
2022/04/21 12:34:58;;;;;;;3.08;2.63;;;15.80;81.80;;;;;;5115048;28;20052;-73
2022/04/21 12:37:25;;;;;;;8.13;3.00;;;15.80;83.40;;;;;;5116215;28;20052;-72
2022/04/21 12:39:52;;;;;;;3.58;3.15;;;15.90;83.30;;;;;;5122066;28;20130;-75
2022/04/21 12:42:19;;;;;;;4.45;3.22;;;16.00;83.30;;;;;;5127009;27;20065;-72
2022/04/21 12:44:45;;;;;;;3.33;3.03;;;16.00;83.00;;;;;;5117930;27;20130;-73
2022/04/21 12:47:17;;;;;;;4.55;3.60;;;16.20;83.60;;;;;;5107609;28;20043;-73
2022/04/21 12:49:50;;;;;;;5.53;3.05;;;16.20;81.20;;;;;;5114053;28;20052;-73
2022/04/21 12:52:26;;;;;;;6.25;2.85;;;16.10;81.10;;;;;;5114758;27;20039;-73
2022/04/21 12:54:51;;;;;;;7.00;3.47;;;16.00;81.40;;;;;;5117208;28;20057;-73
2022/04/21 12:57:17;;;;;;;3.25;2.63;;;16.00;81.00;;;;;;5122363;28;20039;-73
2022/04/21 12:59:44;;;;;;;4.03;3.15;;;16.10;82.00;;;;;;5108490;28;20079;-73
2022/04/21 13:02:10;;;;;;;3.55;2.95;;;16.10;81.60;;;;;;5101250;28;20112;-73
2022/04/21 13:04:36;;;;;;;3.30;2.60;;;16.20;80.20;;;;;;5104576;28;20083;-73
2022/04/21 13:07:03;;;;;;;3.38;3.03;;;16.20;81.60;;;;;;5091975;28;20028;-75
2022/04/21 13:09:29;;;;;;;5.43;3.15;;;16.30;81.50;;;;;;5101656;28;20048;-74
2022/04/21 13:11:54;;;;;;;3.35;3.00;;;16.30;80.70;;;;;;5090838;28;20062;-73
2022/04/21 13:14:20;;;;;;;6.50;3.22;;;16.40;80.80;;;;;;5095209;28;20043;-73
2022/04/21 13:16:45;;;;;;;4.50;3.60;;;16.40;80.30;;;;;;5098432;28;20183;-74
2022/04/21 13:19:11;;;;;;;3.08;2.78;;;16.50;79.50;;;;;;5102630;28;20062;-73
2022/04/21 13:24:22;;;;;;;4.85;3.53;;;16.50;80.20;;;;;;5092772;28;20048;-73
2022/04/21 13:26:48;;;;;;;5.38;3.00;;;16.40;80.10;;;;;;5103745;28;20509;-73
2022/04/21 13:29:13;;;;;;;3.92;2.70;;;16.50;80.60;;;;;;5107862;28;20059;-73
2022/04/21 13:34:23;;;;;;;4.40;3.40;;;16.60;79.40;;;;;;5091051;28;20055;-73
2022/04/21 13:36:49;;;;;;;3.05;2.75;;;16.60;79.60;;;;;;5098323;28;20134;-73
2022/04/21 13:39:15;;;;;;;5.82;3.30;;;16.50;79.30;;;;;;5110758;28;20040;-73
2022/04/21 13:41:41;;;;;;;5.15;3.50;;;16.40;79.40;;;;;;5106129;28;20051;-72
2022/04/21 13:44:07;;;;;;;3.10;2.80;;;16.50;78.50;;;;;;5100395;28;20040;-72
2022/04/21 13:46:36;;;;;;;3.17;2.88;;;16.40;78.10;;;;;;5104878;28;20062;-73
2022/04/21 13:49:04;;;;;;;4.70;3.28;;;16.30;78.70;;;;;;5107175;28;20763;-73
2022/04/21 13:51:30;;;;;;;5.68;3.30;;;16.30;79.50;;;;;;5092305;28;20109;-73
2022/04/21 13:53:56;;;;;;;4.53;3.20;;;16.30;79.60;;;;;;5105433;28;20459;-72
2022/04/21 13:56:22;;;;;;;4.95;2.80;;;16.30;79.70;;;;;;5102024;28;20047;-72